SWR2112 EDDB-LSZH
Flight info
| Callsign | SWR2112 |
|---|---|
| Flight time | 0h 47m |
| Altitude | 34000 |
| Route | KISUC DCT ORTAG/N0450F350 DCT BAMKI/N0450F340 DCT AMOSA N869 TEDGO/N0451F350 T724 RILAX |
| Aircraft | A20N/M-SDE2E3FGHIRWXY/LB1 |
Departure
| Time | 2026-02-18 14:06 |
|---|---|
| Airport | Berlin Brandenburg Airport (EDDB) |
Arrival
| Time | 2026-02-18 14:53 |
|---|---|
| Airport | Zürich Airport (LSZH) |
| Time | Latitude | Longitude | Altitude | Speed | Heading |
|---|---|---|---|---|---|
| 2026-02-18 13:38 | 52.36129 | 13.51301 | 157 ft | 0 kts | 335° |
| 2026-02-18 13:53 | 52.36128 | 13.51302 | 157 ft | 2 kts | 335° |
| 2026-02-18 13:54 | 52.36113 | 13.51313 | 157 ft | 2 kts | 340° |
| 2026-02-18 13:54 | 52.36098 | 13.51322 | 157 ft | 2 kts | 345° |
| 2026-02-18 13:54 | 52.36082 | 13.51328 | 157 ft | 2 kts | 352° |
| 2026-02-18 13:55 | 52.36049 | 13.51324 | 157 ft | 2 kts | 31° |
| 2026-02-18 13:55 | 52.36036 | 13.51307 | 157 ft | 2 kts | 58° |
| 2026-02-18 13:55 | 52.36030 | 13.51290 | 156 ft | 1 kts | 69° |
| 2026-02-18 13:55 | 52.36030 | 13.51287 | 156 ft | 0 kts | 70° |
| 2026-02-18 13:56 | 52.36030 | 13.51288 | 156 ft | 0 kts | 70° |
| 2026-02-18 13:58 | 52.36039 | 13.51328 | 157 ft | 13 kts | 69° |
| 2026-02-18 13:58 | 52.36096 | 13.51557 | 158 ft | 28 kts | 67° |
| 2026-02-18 13:58 | 52.36135 | 13.51892 | 158 ft | 34 kts | 104° |
| 2026-02-18 13:59 | 52.36048 | 13.52152 | 158 ft | 19 kts | 157° |
| 2026-02-18 13:59 | 52.36000 | 13.52176 | 160 ft | 2 kts | 216° |
| 2026-02-18 13:59 | 52.36019 | 13.52139 | 159 ft | 12 kts | 336° |
| 2026-02-18 13:59 | 52.36096 | 13.51970 | 159 ft | 28 kts | 254° |
| 2026-02-18 14:00 | 52.36007 | 13.51603 | 158 ft | 42 kts | 249° |
| 2026-02-18 14:00 | 52.35888 | 13.51105 | 155 ft | 51 kts | 248° |
| 2026-02-18 14:00 | 52.35806 | 13.50689 | 154 ft | 32 kts | 282° |
| 2026-02-18 14:00 | 52.35990 | 13.50533 | 153 ft | 32 kts | 338° |
| 2026-02-18 14:01 | 52.36444 | 13.50415 | 154 ft | 31 kts | 333° |
| 2026-02-18 14:01 | 52.36650 | 13.50270 | 154 ft | 35 kts | 340° |
| 2026-02-18 14:01 | 52.36854 | 13.50145 | 158 ft | 29 kts | 349° |
| 2026-02-18 14:02 | 52.36970 | 13.50349 | 160 ft | 27 kts | 70° |
| 2026-02-18 14:02 | 52.37057 | 13.50692 | 156 ft | 39 kts | 67° |
| 2026-02-18 14:02 | 52.37168 | 13.51163 | 158 ft | 48 kts | 69° |
| 2026-02-18 14:02 | 52.37293 | 13.51696 | 159 ft | 51 kts | 68° |
| 2026-02-18 14:03 | 52.37417 | 13.52214 | 162 ft | 47 kts | 69° |
| 2026-02-18 14:03 | 52.37525 | 13.52662 | 166 ft | 35 kts | 57° |
| 2026-02-18 14:03 | 52.37646 | 13.52656 | 167 ft | 11 kts | 331° |
| 2026-02-18 14:03 | 52.37654 | 13.52649 | 167 ft | 0 kts | 333° |
| 2026-02-18 14:04 | 52.37687 | 13.52625 | 167 ft | 16 kts | 332° |
| 2026-02-18 14:05 | 52.37551 | 13.51789 | 156 ft | 90 kts | 248° |
| 2026-02-18 14:05 | 52.37240 | 13.50481 | 160 ft | 153 kts | 250° |
| 2026-02-18 14:05 | 52.36812 | 13.48679 | 543 ft | 177 kts | 249° |
| 2026-02-18 14:06 | 52.36318 | 13.46761 | 1303 ft | 189 kts | 249° |
| 2026-02-18 14:06 | 52.35790 | 13.44655 | 1951 ft | 212 kts | 250° |
| 2026-02-18 14:06 | 52.35237 | 13.42278 | 2520 ft | 236 kts | 251° |
| 2026-02-18 14:06 | 52.34634 | 13.39668 | 3272 ft | 251 kts | 251° |
| 2026-02-18 14:07 | 52.34006 | 13.36980 | 4291 ft | 255 kts | 251° |
| 2026-02-18 14:07 | 52.33533 | 13.34182 | 5297 ft | 256 kts | 266° |
| 2026-02-18 14:07 | 52.33364 | 13.31266 | 6356 ft | 258 kts | 267° |
| 2026-02-18 14:07 | 52.33186 | 13.28330 | 7344 ft | 261 kts | 267° |
| 2026-02-18 14:08 | 52.33000 | 13.25357 | 8316 ft | 264 kts | 267° |
| 2026-02-18 14:08 | 52.32794 | 13.22353 | 9292 ft | 269 kts | 263° |
| 2026-02-18 14:08 | 52.32246 | 13.19386 | 10210 ft | 278 kts | 249° |
| 2026-02-18 14:08 | 52.31336 | 13.16458 | 10650 ft | 302 kts | 243° |
| 2026-02-18 14:09 | 52.28293 | 13.10902 | 11233 ft | 357 kts | 220° |
| 2026-02-18 14:09 | 52.26114 | 13.08762 | 11800 ft | 373 kts | 209° |
| 2026-02-18 14:09 | 52.23749 | 13.06913 | 12501 ft | 380 kts | 210° |
| 2026-02-18 14:10 | 52.21353 | 13.05017 | 13222 ft | 386 kts | 210° |
| 2026-02-18 14:10 | 52.18916 | 13.03077 | 13910 ft | 393 kts | 211° |
| 2026-02-18 14:10 | 52.16448 | 13.01108 | 14557 ft | 397 kts | 211° |
| 2026-02-18 14:10 | 52.13956 | 12.99120 | 15254 ft | 400 kts | 211° |
| 2026-02-18 14:11 | 52.11477 | 12.97150 | 15951 ft | 403 kts | 211° |
| 2026-02-18 14:11 | 52.08945 | 12.95150 | 16629 ft | 406 kts | 211° |
| 2026-02-18 14:11 | 52.06399 | 12.93148 | 16917 ft | 407 kts | 211° |
| 2026-02-18 14:11 | 52.03850 | 12.91151 | 17008 ft | 407 kts | 211° |
| 2026-02-18 14:12 | 52.01341 | 12.89056 | 17007 ft | 401 kts | 219° |
| 2026-02-18 14:12 | 51.99413 | 12.85976 | 17009 ft | 383 kts | 244° |
| 2026-02-18 14:12 | 51.98276 | 12.82148 | 17008 ft | 376 kts | 252° |
| 2026-02-18 14:12 | 51.96824 | 12.78554 | 17006 ft | 391 kts | 230° |
| 2026-02-18 14:13 | 51.91898 | 12.74308 | 17585 ft | 414 kts | 204° |
| 2026-02-18 14:13 | 51.89145 | 12.72875 | 18283 ft | 417 kts | 203° |
| 2026-02-18 14:13 | 51.86378 | 12.71412 | 18841 ft | 419 kts | 205° |
| 2026-02-18 14:14 | 51.83643 | 12.69775 | 19401 ft | 419 kts | 208° |
| 2026-02-18 14:14 | 51.80700 | 12.67756 | 20022 ft | 419 kts | 211° |
| 2026-02-18 14:14 | 51.70683 | 12.60097 | 22124 ft | 425 kts | 212° |
| 2026-02-18 14:14 | 51.59890 | 12.51902 | 24037 ft | 433 kts | 213° |
| 2026-02-18 14:15 | 51.48822 | 12.43703 | 25608 ft | 441 kts | 213° |
| 2026-02-18 14:15 | 51.26117 | 12.26989 | 28365 ft | 456 kts | 213° |
| 2026-02-18 14:15 | 51.14614 | 12.18622 | 30152 ft | 451 kts | 213° |
| 2026-02-18 14:16 | 50.91907 | 12.02159 | 33143 ft | 447 kts | 214° |
| 2026-02-18 14:16 | 50.80549 | 11.93989 | 33890 ft | 451 kts | 215° |
| 2026-02-18 14:16 | 50.69239 | 11.85948 | 33968 ft | 442 kts | 215° |
| 2026-02-18 14:17 | 50.46571 | 11.69870 | 33833 ft | 451 kts | 216° |
| 2026-02-18 14:17 | 50.35224 | 11.61920 | 33868 ft | 444 kts | 216° |
| 2026-02-18 14:17 | 50.24056 | 11.54096 | 34022 ft | 443 kts | 216° |
| 2026-02-18 14:18 | 50.12745 | 11.46209 | 33917 ft | 449 kts | 216° |
| 2026-02-18 14:18 | 49.90105 | 11.30598 | 34017 ft | 440 kts | 217° |
| 2026-02-18 14:19 | 49.67431 | 11.15102 | 33960 ft | 447 kts | 216° |
| 2026-02-18 14:19 | 49.42869 | 11.07993 | 33917 ft | 520 kts | 165° |
| 2026-02-18 14:20 | 49.15936 | 11.24200 | 33928 ft | 521 kts | 167° |
| 2026-02-18 14:20 | 48.88883 | 11.40347 | 33924 ft | 523 kts | 167° |
| 2026-02-18 14:21 | 48.50194 | 11.63417 | 33817 ft | 525 kts | 162° |
| 2026-02-18 14:21 | 48.45193 | 11.66585 | 33934 ft | 527 kts | 167° |
| 2026-02-18 14:21 | 48.31313 | 11.73887 | 33972 ft | 531 kts | 167° |
| 2026-02-18 14:22 | 48.17533 | 11.81534 | 33947 ft | 518 kts | 176° |
| 2026-02-18 14:22 | 48.03518 | 11.84025 | 33939 ft | 505 kts | 184° |
| 2026-02-18 14:22 | 47.75597 | 11.88699 | 33911 ft | 505 kts | 184° |
| 2026-02-18 14:23 | 47.61649 | 11.90976 | 34016 ft | 504 kts | 184° |
| 2026-02-18 14:23 | 47.48037 | 11.90876 | 33953 ft | 466 kts | 211° |
| 2026-02-18 14:23 | 47.38785 | 11.80262 | 33860 ft | 402 kts | 248° |
| 2026-02-18 14:23 | 47.33973 | 11.65872 | 33926 ft | 389 kts | 254° |
| 2026-02-18 14:24 | 47.29564 | 11.51463 | 33896 ft | 375 kts | 266° |
| 2026-02-18 14:24 | 47.31514 | 11.37376 | 33944 ft | 355 kts | 302° |
| 2026-02-18 14:24 | 47.40273 | 11.16866 | 33916 ft | 355 kts | 301° |
| 2026-02-18 14:25 | 47.41273 | 11.09669 | 32562 ft | 345 kts | 295° |
| 2026-02-18 14:25 | 47.42562 | 11.06726 | 33025 ft | 345 kts | 308° |
| 2026-02-18 14:25 | 47.44211 | 11.04112 | 33165 ft | 351 kts | 310° |
| 2026-02-18 14:26 | 47.45902 | 11.01473 | 33296 ft | 356 kts | 310° |
| 2026-02-18 14:26 | 47.49176 | 10.96204 | 33785 ft | 359 kts | 306° |
| 2026-02-18 14:26 | 47.54386 | 10.83756 | 33933 ft | 352 kts | 299° |
| 2026-02-18 14:27 | 47.64710 | 10.58833 | 33859 ft | 354 kts | 301° |
| 2026-02-18 14:27 | 47.73179 | 10.38005 | 33906 ft | 354 kts | 292° |
| 2026-02-18 14:28 | 47.74115 | 10.30839 | 33564 ft | 358 kts | 275° |
| 2026-02-18 14:28 | 47.73906 | 10.27126 | 32574 ft | 365 kts | 268° |
| 2026-02-18 14:28 | 47.73563 | 10.23340 | 31410 ft | 373 kts | 268° |
| 2026-02-18 14:28 | 47.73213 | 10.19481 | 30229 ft | 382 kts | 267° |
| 2026-02-18 14:29 | 47.72483 | 10.11509 | 27562 ft | 397 kts | 266° |
| 2026-02-18 14:29 | 47.72107 | 10.07417 | 26303 ft | 402 kts | 266° |
| 2026-02-18 14:29 | 47.71723 | 10.03275 | 25028 ft | 407 kts | 266° |
| 2026-02-18 14:30 | 47.71335 | 9.99088 | 23809 ft | 411 kts | 266° |
| 2026-02-18 14:30 | 47.70948 | 9.94912 | 22839 ft | 407 kts | 265° |
| 2026-02-18 14:30 | 47.70561 | 9.90766 | 21857 ft | 403 kts | 265° |
| 2026-02-18 14:30 | 47.70097 | 9.86672 | 20933 ft | 401 kts | 262° |
| 2026-02-18 14:31 | 47.69530 | 9.82626 | 20056 ft | 399 kts | 261° |
| 2026-02-18 14:31 | 47.68907 | 9.78620 | 19196 ft | 397 kts | 259° |
| 2026-02-18 14:31 | 47.68267 | 9.74645 | 18373 ft | 396 kts | 259° |
| 2026-02-18 14:31 | 47.67633 | 9.70676 | 17494 ft | 393 kts | 259° |
| 2026-02-18 14:32 | 47.67018 | 9.66749 | 16689 ft | 389 kts | 259° |
| 2026-02-18 14:32 | 47.66420 | 9.62859 | 15939 ft | 385 kts | 259° |
| 2026-02-18 14:32 | 47.65838 | 9.59012 | 15205 ft | 380 kts | 259° |
| 2026-02-18 14:32 | 47.65268 | 9.55197 | 14493 ft | 376 kts | 259° |
| 2026-02-18 14:33 | 47.64156 | 9.47764 | 13023 ft | 368 kts | 259° |
| 2026-02-18 14:33 | 47.63598 | 9.44082 | 12252 ft | 364 kts | 259° |
| 2026-02-18 14:33 | 47.63047 | 9.40444 | 11493 ft | 360 kts | 259° |
| 2026-02-18 14:34 | 47.62498 | 9.36847 | 10731 ft | 356 kts | 258° |
| 2026-02-18 14:34 | 47.61953 | 9.33292 | 9975 ft | 352 kts | 258° |
| 2026-02-18 14:34 | 47.61411 | 9.29775 | 9206 ft | 348 kts | 258° |
| 2026-02-18 14:34 | 47.60878 | 9.26296 | 8412 ft | 344 kts | 258° |
| 2026-02-18 14:35 | 47.60351 | 9.22854 | 7616 ft | 341 kts | 257° |
| 2026-02-18 14:35 | 47.59823 | 9.19442 | 7158 ft | 339 kts | 257° |
| 2026-02-18 14:35 | 47.59305 | 9.16115 | 7012 ft | 320 kts | 257° |
| 2026-02-18 14:35 | 47.58825 | 9.13029 | 7024 ft | 296 kts | 257° |
| 2026-02-18 14:36 | 47.58380 | 9.10165 | 7025 ft | 275 kts | 257° |
| 2026-02-18 14:36 | 47.57968 | 9.07501 | 7024 ft | 257 kts | 257° |
| 2026-02-18 14:36 | 47.57722 | 9.05825 | 7024 ft | 247 kts | 260° |
| 2026-02-18 14:36 | 47.57702 | 9.03305 | 7024 ft | 246 kts | 275° |
| 2026-02-18 14:37 | 47.58797 | 8.98636 | 7022 ft | 249 kts | 288° |
| 2026-02-18 14:37 | 47.59450 | 8.96259 | 7022 ft | 249 kts | 287° |
| 2026-02-18 14:37 | 47.60095 | 8.93890 | 7020 ft | 248 kts | 287° |
| 2026-02-18 14:38 | 47.60738 | 8.91520 | 7018 ft | 248 kts | 287° |
| 2026-02-18 14:38 | 47.61379 | 8.89152 | 7017 ft | 248 kts | 287° |
| 2026-02-18 14:38 | 47.62019 | 8.86785 | 7017 ft | 247 kts | 287° |
| 2026-02-18 14:38 | 47.62661 | 8.84419 | 7018 ft | 247 kts | 287° |
| 2026-02-18 14:39 | 47.63121 | 8.81983 | 7018 ft | 243 kts | 274° |
| 2026-02-18 14:39 | 47.63080 | 8.79501 | 7020 ft | 241 kts | 258° |
| 2026-02-18 14:39 | 47.62565 | 8.77150 | 7014 ft | 240 kts | 247° |
| 2026-02-18 14:39 | 47.61912 | 8.74866 | 7014 ft | 241 kts | 248° |
| 2026-02-18 14:40 | 47.61273 | 8.72612 | 7013 ft | 241 kts | 248° |
| 2026-02-18 14:40 | 47.60619 | 8.70294 | 7014 ft | 240 kts | 248° |
| 2026-02-18 14:40 | 47.59977 | 8.68009 | 7013 ft | 240 kts | 248° |
| 2026-02-18 14:40 | 47.59342 | 8.65760 | 7011 ft | 240 kts | 248° |
| 2026-02-18 14:41 | 47.58717 | 8.60981 | 7006 ft | 244 kts | 278° |
| 2026-02-18 14:41 | 47.59377 | 8.58647 | 7011 ft | 252 kts | 300° |
| 2026-02-18 14:41 | 47.60615 | 8.56742 | 7009 ft | 259 kts | 310° |
| 2026-02-18 14:42 | 47.61942 | 8.54938 | 7006 ft | 259 kts | 310° |
| 2026-02-18 14:42 | 47.63269 | 8.53131 | 7011 ft | 259 kts | 310° |
| 2026-02-18 14:42 | 47.64595 | 8.51323 | 7011 ft | 259 kts | 310° |
| 2026-02-18 14:42 | 47.65921 | 8.49506 | 6998 ft | 259 kts | 310° |
| 2026-02-18 14:43 | 47.67239 | 8.47695 | 7013 ft | 259 kts | 310° |
| 2026-02-18 14:43 | 47.68562 | 8.45877 | 7014 ft | 259 kts | 310° |
| 2026-02-18 14:43 | 47.69883 | 8.44061 | 7017 ft | 259 kts | 310° |
| 2026-02-18 14:43 | 47.71204 | 8.42245 | 7017 ft | 259 kts | 310° |
| 2026-02-18 14:44 | 47.72526 | 8.40429 | 7018 ft | 259 kts | 310° |
| 2026-02-18 14:44 | 47.73655 | 8.38415 | 7010 ft | 250 kts | 291° |
| 2026-02-18 14:44 | 47.74058 | 8.35977 | 7015 ft | 242 kts | 267° |
| 2026-02-18 14:44 | 47.73695 | 8.33571 | 7009 ft | 240 kts | 244° |
| 2026-02-18 14:45 | 47.71576 | 8.29821 | 7005 ft | 226 kts | 230° |
| 2026-02-18 14:45 | 47.70540 | 8.28187 | 7017 ft | 210 kts | 230° |
| 2026-02-18 14:45 | 47.69422 | 8.26902 | 7011 ft | 203 kts | 206° |
| 2026-02-18 14:46 | 47.68019 | 8.26818 | 7006 ft | 210 kts | 170° |
| 2026-02-18 14:46 | 47.66821 | 8.28069 | 7028 ft | 212 kts | 141° |
| 2026-02-18 14:46 | 47.65825 | 8.29525 | 6954 ft | 189 kts | 148° |
| 2026-02-18 14:46 | 47.64861 | 8.30790 | 6533 ft | 185 kts | 149° |
| 2026-02-18 14:47 | 47.63909 | 8.32071 | 6038 ft | 185 kts | 148° |
| 2026-02-18 14:47 | 47.62974 | 8.33352 | 5611 ft | 179 kts | 147° |
| 2026-02-18 14:47 | 47.62088 | 8.34574 | 5324 ft | 169 kts | 146° |
| 2026-02-18 14:47 | 47.61254 | 8.35722 | 5087 ft | 159 kts | 147° |
| 2026-02-18 14:48 | 47.60469 | 8.36802 | 4869 ft | 149 kts | 147° |
| 2026-02-18 14:48 | 47.59702 | 8.37852 | 4656 ft | 152 kts | 145° |
| 2026-02-18 14:48 | 47.58912 | 8.38933 | 4290 ft | 163 kts | 143° |
| 2026-02-18 14:48 | 47.57969 | 8.40199 | 3195 ft | 204 kts | 138° |
| 2026-02-18 14:49 | 47.55986 | 8.42940 | 2950 ft | 175 kts | 136° |
| 2026-02-18 14:49 | 47.55176 | 8.44059 | 2962 ft | 148 kts | 136° |
| 2026-02-18 14:49 | 47.54516 | 8.44966 | 2969 ft | 125 kts | 136° |
| 2026-02-18 14:50 | 47.53926 | 8.45777 | 2730 ft | 123 kts | 136° |
| 2026-02-18 14:50 | 47.53298 | 8.46638 | 2414 ft | 125 kts | 136° |
| 2026-02-18 14:50 | 47.52657 | 8.47515 | 2092 ft | 125 kts | 137° |
| 2026-02-18 14:50 | 47.52003 | 8.48362 | 1908 ft | 127 kts | 139° |
| 2026-02-18 14:51 | 47.51350 | 8.49264 | 1876 ft | 130 kts | 134° |
| 2026-02-18 14:51 | 47.50724 | 8.50161 | 1855 ft | 130 kts | 137° |
| 2026-02-18 14:51 | 47.50048 | 8.51050 | 1869 ft | 130 kts | 137° |
| 2026-02-18 14:51 | 47.49400 | 8.51992 | 1779 ft | 131 kts | 135° |
| 2026-02-18 14:52 | 47.48742 | 8.52895 | 1598 ft | 130 kts | 136° |
| 2026-02-18 14:52 | 47.48080 | 8.53791 | 1426 ft | 129 kts | 138° |
| 2026-02-18 14:52 | 47.47435 | 8.54665 | 1402 ft | 111 kts | 137° |
| 2026-02-18 14:52 | 47.47008 | 8.55246 | 1396 ft | 59 kts | 137° |
| 2026-02-18 14:53 | 47.46539 | 8.55701 | 1406 ft | 25 kts | 167° |
| 2026-02-18 14:53 | 47.46426 | 8.55736 | 1396 ft | 0 kts | 167° |
| 2026-02-18 14:54 | 47.46423 | 8.55737 | 1398 ft | 3 kts | 165° |
| 2026-02-18 14:55 | 47.46363 | 8.55787 | 1402 ft | 11 kts | 139° |
| 2026-02-18 14:55 | 47.46313 | 8.55854 | 1403 ft | 8 kts | 140° |
| 2026-02-18 14:55 | 47.46240 | 8.55866 | 1398 ft | 16 kts | 218° |
| 2026-02-18 14:55 | 47.46207 | 8.55731 | 1404 ft | 9 kts | 210° |
| 2026-02-18 14:56 | 47.46184 | 8.55732 | 1399 ft | 7 kts | 181° |
| 2026-02-18 14:56 | 47.46144 | 8.55727 | 1397 ft | 0 kts | 185° |